CheckWX is a tool to help pilots better visualize weather data.  It is not intended as a substitute for an official pre-flight weather briefing.

17:39:42 UTC

KGYY METAR
Gary / Chicago International Airport
Gary, Indiana, USA
Current

55 mins ago

KGYY 061645Z 14009KT 10SM SCT250 15/M04 A3009
Observed
Apr-6 @ 16:45 UTC
Wind
  • 140° at 9 KTS
Visibility
Flight Rules
VFR
Cloud Levels
  • Scattered at 25,000' AGL
Temperature
15°C / 59°F
Dewpoint
-4°C / 25°F
Humidity
27%
Altimeter
30.09" Hg
Pressure
1018.92 hPa
Previous

2 hours ago

KGYY 061545Z 17008KT 10SM SCT250 13/00 A3012
Observed
Apr-6 @ 15:45 UTC
Wind
  • 170° at 8 KTS
Visibility
Flight Rules
VFR
Cloud Levels
  • Scattered at 25,000' AGL
Temperature
13°C / 55°F
Dewpoint
C / 32°F
Humidity
41%
Altimeter
30.12" Hg
Pressure
1020.02 hPa
Previous

3 hours ago

KGYY 061445Z 16007KT 7SM BKN120 12/01 A3013
Observed
Apr-6 @ 14:45 UTC
Wind
  • 160° at 7 KTS
Visibility
Flight Rules
VFR
Cloud Levels
  • Broken at 12,000' AGL
Temperature
12°C / 54°F
Dewpoint
C / 34°F
Humidity
47%
Altimeter
30.13" Hg
Pressure
1020.32 hPa